sensor_id;sensor_type;location;lat;lon;timestamp;temperature;humidity
68128;SHT30;54931;52.098;21.006;2023-05-08T00:00:43;1.09;82.20
68128;SHT30;54931;52.098;21.006;2023-05-08T00:03:16;1.06;82.19
68128;SHT30;54931;52.098;21.006;2023-05-08T00:05:44;1.03;82.25
68128;SHT30;54931;52.098;21.006;2023-05-08T00:08:11;1.02;82.44
68128;SHT30;54931;52.098;21.006;2023-05-08T00:10:39;1.02;82.51
68128;SHT30;54931;52.098;21.006;2023-05-08T00:13:06;1.02;82.67
68128;SHT30;54931;52.098;21.006;2023-05-08T00:15:34;1.00;82.71
68128;SHT30;54931;52.098;21.006;2023-05-08T00:18:02;0.98;82.74
68128;SHT30;54931;52.098;21.006;2023-05-08T00:20:30;0.97;82.80
68128;SHT30;54931;52.098;21.006;2023-05-08T00:23:00;0.96;82.80
68128;SHT30;54931;52.098;21.006;2023-05-08T00:25:27;0.93;82.80
68128;SHT30;54931;52.098;21.006;2023-05-08T00:27:57;0.91;82.78
68128;SHT30;54931;52.098;21.006;2023-05-08T00:30:26;0.89;82.82
68128;SHT30;54931;52.098;21.006;2023-05-08T00:32:53;0.87;82.88
68128;SHT30;54931;52.098;21.006;2023-05-08T00:35:21;0.85;82.91
68128;SHT30;54931;52.098;21.006;2023-05-08T00:37:48;0.83;82.89
68128;SHT30;54931;52.098;21.006;2023-05-08T00:40:16;0.81;82.87
68128;SHT30;54931;52.098;21.006;2023-05-08T00:42:44;0.77;82.80
68128;SHT30;54931;52.098;21.006;2023-05-08T00:45:11;0.74;82.82
68128;SHT30;54931;52.098;21.006;2023-05-08T00:47:39;0.73;82.94
68128;SHT30;54931;52.098;21.006;2023-05-08T00:50:08;0.72;83.00
68128;SHT30;54931;52.098;21.006;2023-05-08T00:52:36;0.72;83.01
68128;SHT30;54931;52.098;21.006;2023-05-08T00:55:05;0.71;83.10
68128;SHT30;54931;52.098;21.006;2023-05-08T00:57:33;0.72;83.17
68128;SHT30;54931;52.098;21.006;2023-05-08T01:00:02;0.73;83.25
68128;SHT30;54931;52.098;21.006;2023-05-08T01:02:31;0.72;83.17
68128;SHT30;54931;52.098;21.006;2023-05-08T01:05:02;0.72;83.19
68128;SHT30;54931;52.098;21.006;2023-05-08T01:07:32;0.71;83.21
68128;SHT30;54931;52.098;21.006;2023-05-08T01:09:59;0.72;83.22
68128;SHT30;54931;52.098;21.006;2023-05-08T01:15:11;0.70;83.33
68128;SHT30;54931;52.098;21.006;2023-05-08T01:18:04;0.72;83.48
68128;SHT30;54931;52.098;21.006;2023-05-08T01:20:55;0.75;83.49
68128;SHT30;54931;52.098;21.006;2023-05-08T01:23:52;0.77;83.52
68128;SHT30;54931;52.098;21.006;2023-05-08T01:33:01;0.83;83.48
68128;SHT30;54931;52.098;21.006;2023-05-08T01:35:54;0.80;83.39
68128;SHT30;54931;52.098;21.006;2023-05-08T01:38:46;0.78;83.30
68128;SHT30;54931;52.098;21.006;2023-05-08T01:41:45;0.74;83.30
68128;SHT30;54931;52.098;21.006;2023-05-08T01:44:36;0.71;83.32
68128;SHT30;54931;52.098;21.006;2023-05-08T01:47:15;0.69;83.41
68128;SHT30;54931;52.098;21.006;2023-05-08T01:49:49;0.67;83.46
68128;SHT30;54931;52.098;21.006;2023-05-08T01:52:41;0.64;83.43
68128;SHT30;54931;52.098;21.006;2023-05-08T01:55:20;0.61;83.40
68128;SHT30;54931;52.098;21.006;2023-05-08T01:57:57;0.59;83.41
68128;SHT30;54931;52.098;21.006;2023-05-08T02:00:27;0.57;83.50
68128;SHT30;54931;52.098;21.006;2023-05-08T02:02:55;0.54;83.55
68128;SHT30;54931;52.098;21.006;2023-05-08T02:05:24;0.53;83.61
68128;SHT30;54931;52.098;21.006;2023-05-08T02:07:54;0.50;83.55
68128;SHT30;54931;52.098;21.006;2023-05-08T02:10:22;0.49;83.58
68128;SHT30;54931;52.098;21.006;2023-05-08T02:12:54;0.46;83.63
68128;SHT30;54931;52.098;21.006;2023-05-08T02:15:25;0.44;83.70
68128;SHT30;54931;52.098;21.006;2023-05-08T02:17:56;0.43;83.71
68128;SHT30;54931;52.098;21.006;2023-05-08T02:20:24;0.41;83.76
68128;SHT30;54931;52.098;21.006;2023-05-08T02:22:54;0.38;83.77
68128;SHT30;54931;52.098;21.006;2023-05-08T02:25:23;0.36;83.69
68128;SHT30;54931;52.098;21.006;2023-05-08T02:27:54;0.32;83.70
68128;SHT30;54931;52.098;21.006;2023-05-08T02:30:23;0.28;83.72
68128;SHT30;54931;52.098;21.006;2023-05-08T02:32:52;0.26;83.81
68128;SHT30;54931;52.098;21.006;2023-05-08T02:35:23;0.24;83.91
68128;SHT30;54931;52.098;21.006;2023-05-08T02:37:52;0.24;83.98
68128;SHT30;54931;52.098;21.006;2023-05-08T02:40:23;0.24;84.08
68128;SHT30;54931;52.098;21.006;2023-05-08T02:42:55;0.21;83.93
68128;SHT30;54931;52.098;21.006;2023-05-08T02:45:24;0.19;83.95
68128;SHT30;54931;52.098;21.006;2023-05-08T02:54:10;0.20;84.32
68128;SHT30;54931;52.098;21.006;2023-05-08T02:59:58;0.21;84.33
68128;SHT30;54931;52.098;21.006;2023-05-08T03:02:49;0.23;84.41
68128;SHT30;54931;52.098;21.006;2023-05-08T03:05:31;0.25;84.57
68128;SHT30;54931;52.098;21.006;2023-05-08T03:08:09;0.27;84.54
68128;SHT30;54931;52.098;21.006;2023-05-08T03:10:44;0.28;84.68
68128;SHT30;54931;52.098;21.006;2023-05-08T03:13:16;0.31;84.70
68128;SHT30;54931;52.098;21.006;2023-05-08T03:15:48;0.35;84.74
68128;SHT30;54931;52.098;21.006;2023-05-08T03:18:25;0.38;84.69
68128;SHT30;54931;52.098;21.006;2023-05-08T03:21:02;0.41;84.63
68128;SHT30;54931;52.098;21.006;2023-05-08T03:23:32;0.45;84.76
68128;SHT30;54931;52.098;21.006;2023-05-08T03:26:04;0.49;84.68
68128;SHT30;54931;52.098;21.006;2023-05-08T03:28:35;0.51;84.60
68128;SHT30;54931;52.098;21.006;2023-05-08T03:31:06;0.54;84.60
68128;SHT30;54931;52.098;21.006;2023-05-08T03:33:35;0.57;84.67
68128;SHT30;54931;52.098;21.006;2023-05-08T03:36:05;0.62;84.69
68128;SHT30;54931;52.098;21.006;2023-05-08T03:38:34;0.67;84.77
68128;SHT30;54931;52.098;21.006;2023-05-08T03:41:02;0.72;84.79
68128;SHT30;54931;52.098;21.006;2023-05-08T03:43:31;0.77;84.80
68128;SHT30;54931;52.098;21.006;2023-05-08T03:46:00;0.82;84.81
68128;SHT30;54931;52.098;21.006;2023-05-08T03:48:28;0.88;84.80
68128;SHT30;54931;52.098;21.006;2023-05-08T03:51:02;0.94;84.82
68128;SHT30;54931;52.098;21.006;2023-05-08T03:53:33;1.01;84.81
68128;SHT30;54931;52.098;21.006;2023-05-08T03:56:01;1.10;84.88
68128;SHT30;54931;52.098;21.006;2023-05-08T04:05:23;1.47;85.32
68128;SHT30;54931;52.098;21.006;2023-05-08T04:08:07;1.67;85.67
68128;SHT30;54931;52.098;21.006;2023-05-08T04:10:45;1.82;85.62
68128;SHT30;54931;52.098;21.006;2023-05-08T04:13:26;1.97;85.67
68128;SHT30;54931;52.098;21.006;2023-05-08T04:16:05;2.15;85.75
68128;SHT30;54931;52.098;21.006;2023-05-08T04:18:44;2.52;86.04
68128;SHT30;54931;52.098;21.006;2023-05-08T04:21:19;2.98;86.19
68128;SHT30;54931;52.098;21.006;2023-05-08T04:23:51;3.51;85.90
68128;SHT30;54931;52.098;21.006;2023-05-08T04:26:21;4.01;85.70
68128;SHT30;54931;52.098;21.006;2023-05-08T04:28:49;4.50;85.30
68128;SHT30;54931;52.098;21.006;2023-05-08T04:31:18;4.97;85.06
68128;SHT30;54931;52.098;21.006;2023-05-08T04:33:45;5.46;84.64
68128;SHT30;54931;52.098;21.006;2023-05-08T04:36:14;5.88;83.79
68128;SHT30;54931;52.098;21.006;2023-05-08T04:38:42;6.23;83.00
68128;SHT30;54931;52.098;21.006;2023-05-08T04:41:10;6.58;82.27
68128;SHT30;54931;52.098;21.006;2023-05-08T04:43:37;6.93;81.38
68128;SHT30;54931;52.098;21.006;2023-05-08T04:46:05;7.28;81.04
68128;SHT30;54931;52.098;21.006;2023-05-08T04:48:33;7.71;80.64
68128;SHT30;54931;52.098;21.006;2023-05-08T04:51:02;8.11;79.90
68128;SHT30;54931;52.098;21.006;2023-05-08T04:53:30;8.56;79.25
68128;SHT30;54931;52.098;21.006;2023-05-08T04:55:58;9.01;78.21
68128;SHT30;54931;52.098;21.006;2023-05-08T04:58:25;9.29;76.85
68128;SHT30;54931;52.098;21.006;2023-05-08T05:00:54;9.68;76.25
68128;SHT30;54931;52.098;21.006;2023-05-08T05:03:22;9.89;73.69
68128;SHT30;54931;52.098;21.006;2023-05-08T05:05:55;10.00;72.47
68128;SHT30;54931;52.098;21.006;2023-05-08T05:08:27;10.23;71.21
68128;SHT30;54931;52.098;21.006;2023-05-08T05:10:55;10.47;71.09
68128;SHT30;54931;52.098;21.006;2023-05-08T05:13:22;10.72;69.37
68128;SHT30;54931;52.098;21.006;2023-05-08T05:15:50;10.94;68.79
68128;SHT30;54931;52.098;21.006;2023-05-08T05:18:20;11.10;65.82
68128;SHT30;54931;52.098;21.006;2023-05-08T05:20:48;11.28;66.47
68128;SHT30;54931;52.098;21.006;2023-05-08T05:23:15;11.56;65.47
68128;SHT30;54931;52.098;21.006;2023-05-08T05:25:43;11.75;64.17
68128;SHT30;54931;52.098;21.006;2023-05-08T05:28:11;11.94;62.08
68128;SHT30;54931;52.098;21.006;2023-05-08T05:30:38;11.99;61.22
68128;SHT30;54931;52.098;21.006;2023-05-08T05:33:06;12.11;60.11
68128;SHT30;54931;52.098;21.006;2023-05-08T05:35:33;12.19;57.78
68128;SHT30;54931;52.098;21.006;2023-05-08T05:38:01;12.25;58.24
68128;SHT30;54931;52.098;21.006;2023-05-08T05:40:29;12.53;58.11
68128;SHT30;54931;52.098;21.006;2023-05-08T05:42:56;12.73;56.88
68128;SHT30;54931;52.098;21.006;2023-05-08T05:45:25;12.85;55.09
68128;SHT30;54931;52.098;21.006;2023-05-08T05:47:53;12.79;57.31
68128;SHT30;54931;52.098;21.006;2023-05-08T05:50:21;12.84;55.90
68128;SHT30;54931;52.098;21.006;2023-05-08T05:52:49;12.81;56.88
68128;SHT30;54931;52.098;21.006;2023-05-08T05:55:17;13.06;56.66
68128;SHT30;54931;52.098;21.006;2023-05-08T05:57:44;13.21;54.50
68128;SHT30;54931;52.098;21.006;2023-05-08T06:00:13;13.25;54.46
68128;SHT30;54931;52.098;21.006;2023-05-08T06:02:42;13.47;54.36
68128;SHT30;54931;52.098;21.006;2023-05-08T06:05:10;13.59;52.66
68128;SHT30;54931;52.098;21.006;2023-05-08T06:07:38;13.58;52.47
68128;SHT30;54931;52.098;21.006;2023-05-08T06:10:07;13.62;51.90
68128;SHT30;54931;52.098;21.006;2023-05-08T06:12:35;13.73;52.57
68128;SHT30;54931;52.098;21.006;2023-05-08T06:15:03;13.84;51.41
68128;SHT30;54931;52.098;21.006;2023-05-08T06:17:32;13.84;50.82
68128;SHT30;54931;52.098;21.006;2023-05-08T06:20:01;13.81;51.06
68128;SHT30;54931;52.098;21.006;2023-05-08T06:22:29;13.99;50.68
68128;SHT30;54931;52.098;21.006;2023-05-08T06:24:58;13.99;50.78
68128;SHT30;54931;52.098;21.006;2023-05-08T06:27:25;13.83;49.90
68128;SHT30;54931;52.098;21.006;2023-05-08T06:29:53;13.89;51.08
68128;SHT30;54931;52.098;21.006;2023-05-08T06:32:21;14.27;51.50
68128;SHT30;54931;52.098;21.006;2023-05-08T06:34:48;14.41;49.56
68128;SHT30;54931;52.098;21.006;2023-05-08T06:37:16;14.37;49.38
68128;SHT30;54931;52.098;21.006;2023-05-08T06:39:44;14.49;48.75
68128;SHT30;54931;52.098;21.006;2023-05-08T06:42:12;14.65;47.74
68128;SHT30;54931;52.098;21.006;2023-05-08T06:44:40;14.64;47.96
68128;SHT30;54931;52.098;21.006;2023-05-08T06:47:08;14.69;47.61
68128;SHT30;54931;52.098;21.006;2023-05-08T06:49:35;14.81;48.14
68128;SHT30;54931;52.098;21.006;2023-05-08T06:52:03;15.09;47.50
68128;SHT30;54931;52.098;21.006;2023-05-08T06:54:31;15.18;46.99
68128;SHT30;54931;52.098;21.006;2023-05-08T06:56:59;15.44;47.08
68128;SHT30;54931;52.098;21.006;2023-05-08T06:59:27;15.61;46.63
68128;SHT30;54931;52.098;21.006;2023-05-08T07:01:55;15.82;46.13
68128;SHT30;54931;52.098;21.006;2023-05-08T07:04:23;15.97;44.75
68128;SHT30;54931;52.098;21.006;2023-05-08T07:06:50;15.85;43.79
68128;SHT30;54931;52.098;21.006;2023-05-08T07:09:18;15.68;43.43
68128;SHT30;54931;52.098;21.006;2023-05-08T07:11:45;15.45;44.24
68128;SHT30;54931;52.098;21.006;2023-05-08T07:14:14;15.60;44.92
68128;SHT30;54931;52.098;21.006;2023-05-08T07:16:43;15.73;44.19
68128;SHT30;54931;52.098;21.006;2023-05-08T07:19:10;15.68;43.92
68128;SHT30;54931;52.098;21.006;2023-05-08T07:21:38;15.47;42.65
68128;SHT30;54931;52.098;21.006;2023-05-08T07:24:06;15.28;44.10
68128;SHT30;54931;52.098;21.006;2023-05-08T07:26:34;15.48;43.62
68128;SHT30;54931;52.098;21.006;2023-05-08T07:29:02;15.60;42.78
68128;SHT30;54931;52.098;21.006;2023-05-08T07:31:30;15.75;43.48
68128;SHT30;54931;52.098;21.006;2023-05-08T07:33:58;15.83;42.79
68128;SHT30;54931;52.098;21.006;2023-05-08T07:36:26;15.69;42.06
68128;SHT30;54931;52.098;21.006;2023-05-08T07:38:53;15.78;43.31
68128;SHT30;54931;52.098;21.006;2023-05-08T07:41:21;15.91;41.80
68128;SHT30;54931;52.098;21.006;2023-05-08T07:43:48;15.54;40.09
68128;SHT30;54931;52.098;21.006;2023-05-08T07:46:16;15.37;42.17
68128;SHT30;54931;52.098;21.006;2023-05-08T07:48:45;15.63;42.91
68128;SHT30;54931;52.098;21.006;2023-05-08T07:51:13;15.83;42.26
68128;SHT30;54931;52.098;21.006;2023-05-08T07:53:42;15.91;41.43
68128;SHT30;54931;52.098;21.006;2023-05-08T07:56:09;15.95;41.91
68128;SHT30;54931;52.098;21.006;2023-05-08T07:58:38;16.16;41.76
68128;SHT30;54931;52.098;21.006;2023-05-08T08:01:06;16.33;41.39
68128;SHT30;54931;52.098;21.006;2023-05-08T08:03:34;16.32;40.20
68128;SHT30;54931;52.098;21.006;2023-05-08T08:06:02;16.42;41.54
68128;SHT30;54931;52.098;21.006;2023-05-08T08:08:30;16.76;41.35
68128;SHT30;54931;52.098;21.006;2023-05-08T08:10:58;16.71;39.53
68128;SHT30;54931;52.098;21.006;2023-05-08T08:13:25;16.76;39.74
68128;SHT30;54931;52.098;21.006;2023-05-08T08:15:53;16.80;40.10
68128;SHT30;54931;52.098;21.006;2023-05-08T08:18:21;17.00;40.56
68128;SHT30;54931;52.098;21.006;2023-05-08T08:20:49;17.34;40.16
68128;SHT30;54931;52.098;21.006;2023-05-08T08:23:17;17.64;39.05
68128;SHT30;54931;52.098;21.006;2023-05-08T08:25:45;17.81;38.88
68128;SHT30;54931;52.098;21.006;2023-05-08T08:28:13;17.87;37.98
68128;SHT30;54931;52.098;21.006;2023-05-08T08:30:41;18.03;38.56
68128;SHT30;54931;52.098;21.006;2023-05-08T08:33:08;18.30;38.48
68128;SHT30;54931;52.098;21.006;2023-05-08T08:35:36;18.52;37.00
68128;SHT30;54931;52.098;21.006;2023-05-08T08:38:04;18.71;35.99
68128;SHT30;54931;52.098;21.006;2023-05-08T08:40:31;18.43;35.57
68128;SHT30;54931;52.098;21.006;2023-05-08T08:42:59;18.00;36.65
68128;SHT30;54931;52.098;21.006;2023-05-08T08:45:28;17.88;36.29
68128;SHT30;54931;52.098;21.006;2023-05-08T08:47:59;17.54;36.36
68128;SHT30;54931;52.098;21.006;2023-05-08T08:50:29;17.32;37.10
68128;SHT30;54931;52.098;21.006;2023-05-08T08:53:05;17.06;37.58
68128;SHT30;54931;52.098;21.006;2023-05-08T08:55:39;16.96;38.28
68128;SHT30;54931;52.098;21.006;2023-05-08T09:01:04;16.51;37.49
68128;SHT30;54931;52.098;21.006;2023-05-08T09:03:40;15.96;37.66
68128;SHT30;54931;52.098;21.006;2023-05-08T09:06:08;15.33;37.21
68128;SHT30;54931;52.098;21.006;2023-05-08T09:08:36;15.02;38.75
68128;SHT30;54931;52.098;21.006;2023-05-08T09:11:04;14.94;40.17
68128;SHT30;54931;52.098;21.006;2023-05-08T09:13:32;14.97;40.18
68128;SHT30;54931;52.098;21.006;2023-05-08T09:15:59;15.27;39.01
68128;SHT30;54931;52.098;21.006;2023-05-08T09:18:28;15.73;37.83
68128;SHT30;54931;52.098;21.006;2023-05-08T09:20:56;15.83;36.94
68128;SHT30;54931;52.098;21.006;2023-05-08T09:23:26;16.16;37.39
68128;SHT30;54931;52.098;21.006;2023-05-08T09:25:53;16.78;38.43
68128;SHT30;54931;52.098;21.006;2023-05-08T09:28:22;17.48;34.25
68128;SHT30;54931;52.098;21.006;2023-05-08T09:30:53;17.56;32.95
68128;SHT30;54931;52.098;21.006;2023-05-08T09:33:26;17.32;34.35
68128;SHT30;54931;52.098;21.006;2023-05-08T09:35:56;17.53;34.39
68128;SHT30;54931;52.098;21.006;2023-05-08T09:38:37;17.92;33.79
68128;SHT30;54931;52.098;21.006;2023-05-08T09:41:07;18.20;33.31
68128;SHT30;54931;52.098;21.006;2023-05-08T09:43:43;18.59;32.43
68128;SHT30;54931;52.098;21.006;2023-05-08T09:46:26;18.55;30.72
68128;SHT30;54931;52.098;21.006;2023-05-08T09:48:58;17.93;32.25
68128;SHT30;54931;52.098;21.006;2023-05-08T09:51:29;17.48;32.61
68128;SHT30;54931;52.098;21.006;2023-05-08T09:53:58;17.03;33.75
68128;SHT30;54931;52.098;21.006;2023-05-08T09:56:30;16.68;34.51
68128;SHT30;54931;52.098;21.006;2023-05-08T10:01:55;16.50;35.95
68128;SHT30;54931;52.098;21.006;2023-05-08T10:04:30;17.13;35.60
68128;SHT30;54931;52.098;21.006;2023-05-08T10:07:02;17.27;33.26
68128;SHT30;54931;52.098;21.006;2023-05-08T10:09:30;17.04;33.00
68128;SHT30;54931;52.098;21.006;2023-05-08T10:11:58;16.73;33.38
68128;SHT30;54931;52.098;21.006;2023-05-08T10:14:25;16.56;34.41
68128;SHT30;54931;52.098;21.006;2023-05-08T10:16:53;16.35;34.73
68128;SHT30;54931;52.098;21.006;2023-05-08T10:19:22;16.57;34.46
68128;SHT30;54931;52.098;21.006;2023-05-08T10:21:54;16.65;33.84
68128;SHT30;54931;52.098;21.006;2023-05-08T10:24:27;16.64;33.83
68128;SHT30;54931;52.098;21.006;2023-05-08T10:27:10;16.35;33.90
68128;SHT30;54931;52.098;21.006;2023-05-08T10:32:22;16.31;34.33
68128;SHT30;54931;52.098;21.006;2023-05-08T10:34:55;16.24;34.12
68128;SHT30;54931;52.098;21.006;2023-05-08T10:37:28;16.15;33.69
68128;SHT30;54931;52.098;21.006;2023-05-08T10:39:56;16.39;33.92
68128;SHT30;54931;52.098;21.006;2023-05-08T10:42:25;16.61;32.85
68128;SHT30;54931;52.098;21.006;2023-05-08T10:44:54;16.83;32.93
68128;SHT30;54931;52.098;21.006;2023-05-08T10:47:26;17.38;33.36
68128;SHT30;54931;52.098;21.006;2023-05-08T10:50:11;17.93;31.52
68128;SHT30;54931;52.098;21.006;2023-05-08T10:53:06;17.72;30.56
68128;SHT30;54931;52.098;21.006;2023-05-08T10:55:44;17.50;30.55
68128;SHT30;54931;52.098;21.006;2023-05-08T10:58:37;17.58;31.44
68128;SHT30;54931;52.098;21.006;2023-05-08T11:03:42;17.97;31.51
68128;SHT30;54931;52.098;21.006;2023-05-08T11:06:12;18.29;31.37
68128;SHT30;54931;52.098;21.006;2023-05-08T11:08:50;18.47;30.32
68128;SHT30;54931;52.098;21.006;2023-05-08T11:11:26;18.48;30.44
68128;SHT30;54931;52.098;21.006;2023-05-08T11:19:22;18.91;29.53
68128;SHT30;54931;52.098;21.006;2023-05-08T11:24:47;18.12;30.40
68128;SHT30;54931;52.098;21.006;2023-05-08T11:27:16;18.24;29.91
68128;SHT30;54931;52.098;21.006;2023-05-08T11:29:44;17.81;30.14
68128;SHT30;54931;52.098;21.006;2023-05-08T11:33:12;17.35;31.72
68128;SHT30;54931;52.098;21.006;2023-05-08T11:40:44;17.21;31.41
68128;SHT30;54931;52.098;21.006;2023-05-08T11:46:07;17.18;32.68
68128;SHT30;54931;52.098;21.006;2023-05-08T11:48:45;17.38;32.17
68128;SHT30;54931;52.098;21.006;2023-05-08T11:51:16;17.49;32.14
68128;SHT30;54931;52.098;21.006;2023-05-08T11:53:47;17.50;32.12
68128;SHT30;54931;52.098;21.006;2023-05-08T11:56:15;17.35;31.63
68128;SHT30;54931;52.098;21.006;2023-05-08T11:58:43;17.08;31.33
68128;SHT30;54931;52.098;21.006;2023-05-08T12:01:15;16.78;31.74
68128;SHT30;54931;52.098;21.006;2023-05-08T12:03:58;16.55;32.52
68128;SHT30;54931;52.098;21.006;2023-05-08T12:06:30;16.51;32.56
68128;SHT30;54931;52.098;21.006;2023-05-08T12:09:00;16.82;33.14
68128;SHT30;54931;52.098;21.006;2023-05-08T12:11:31;17.37;33.98
68128;SHT30;54931;52.098;21.006;2023-05-08T12:13:59;17.87;33.68
68128;SHT30;54931;52.098;21.006;2023-05-08T12:16:27;17.97;31.00
68128;SHT30;54931;52.098;21.006;2023-05-08T12:18:55;17.97;32.47
68128;SHT30;54931;52.098;21.006;2023-05-08T12:21:23;18.12;31.58
68128;SHT30;54931;52.098;21.006;2023-05-08T12:23:52;17.90;32.28
68128;SHT30;54931;52.098;21.006;2023-05-08T12:26:22;17.92;31.91
68128;SHT30;54931;52.098;21.006;2023-05-08T12:28:55;17.78;31.07
68128;SHT30;54931;52.098;21.006;2023-05-08T12:31:23;17.68;32.35
68128;SHT30;54931;52.098;21.006;2023-05-08T12:33:51;17.57;32.63
68128;SHT30;54931;52.098;21.006;2023-05-08T12:36:21;17.50;31.22
68128;SHT30;54931;52.098;21.006;2023-05-08T12:38:49;17.46;30.11
68128;SHT30;54931;52.098;21.006;2023-05-08T12:41:24;17.53;31.33
68128;SHT30;54931;52.098;21.006;2023-05-08T12:43:52;17.91;32.88
68128;SHT30;54931;52.098;21.006;2023-05-08T12:46:19;18.35;32.47
68128;SHT30;54931;52.098;21.006;2023-05-08T12:48:48;18.65;31.56
68128;SHT30;54931;52.098;21.006;2023-05-08T12:51:15;18.76;30.91
68128;SHT30;54931;52.098;21.006;2023-05-08T12:53:44;18.58;30.73
68128;SHT30;54931;52.098;21.006;2023-05-08T12:56:12;18.64;31.13
68128;SHT30;54931;52.098;21.006;2023-05-08T12:58:47;18.53;29.75
68128;SHT30;54931;52.098;21.006;2023-05-08T13:01:15;18.34;30.22
68128;SHT30;54931;52.098;21.006;2023-05-08T13:03:42;18.39;30.87
68128;SHT30;54931;52.098;21.006;2023-05-08T13:06:19;18.37;30.37
68128;SHT30;54931;52.098;21.006;2023-05-08T13:08:51;18.27;30.18
68128;SHT30;54931;52.098;21.006;2023-05-08T13:11:29;18.10;30.61
68128;SHT30;54931;52.098;21.006;2023-05-08T13:13:59;18.04;31.00
68128;SHT30;54931;52.098;21.006;2023-05-08T13:16:27;18.24;31.06
68128;SHT30;54931;52.098;21.006;2023-05-08T13:18:54;18.36;30.47
68128;SHT30;54931;52.098;21.006;2023-05-08T13:21:22;18.37;29.91
68128;SHT30;54931;52.098;21.006;2023-05-08T13:23:50;18.48;30.02
68128;SHT30;54931;52.098;21.006;2023-05-08T13:26:17;18.69;30.21
68128;SHT30;54931;52.098;21.006;2023-05-08T13:28:45;18.86;29.76
68128;SHT30;54931;52.098;21.006;2023-05-08T13:31:12;18.99;29.79
68128;SHT30;54931;52.098;21.006;2023-05-08T13:33:40;19.13;28.81
68128;SHT30;54931;52.098;21.006;2023-05-08T13:36:08;19.27;29.52
68128;SHT30;54931;52.098;21.006;2023-05-08T13:38:35;19.39;28.35
68128;SHT30;54931;52.098;21.006;2023-05-08T13:41:03;19.24;27.11
68128;SHT30;54931;52.098;21.006;2023-05-08T13:43:31;18.97;27.44
68128;SHT30;54931;52.098;21.006;2023-05-08T13:45:58;18.96;28.83
68128;SHT30;54931;52.098;21.006;2023-05-08T13:48:26;19.19;28.22
68128;SHT30;54931;52.098;21.006;2023-05-08T13:50:54;19.26;28.60
68128;SHT30;54931;52.098;21.006;2023-05-08T13:53:23;19.44;28.76
68128;SHT30;54931;52.098;21.006;2023-05-08T13:55:51;19.58;28.53
68128;SHT30;54931;52.098;21.006;2023-05-08T13:58:19;19.40;28.00
68128;SHT30;54931;52.098;21.006;2023-05-08T14:00:48;19.01;27.61
68128;SHT30;54931;52.098;21.006;2023-05-08T14:03:18;18.55;27.57
68128;SHT30;54931;52.098;21.006;2023-05-08T14:05:46;18.34;27.90
68128;SHT30;54931;52.098;21.006;2023-05-08T14:08:14;18.47;28.36
68128;SHT30;54931;52.098;21.006;2023-05-08T14:10:43;18.83;28.65
68128;SHT30;54931;52.098;21.006;2023-05-08T14:13:10;19.10;28.29
68128;SHT30;54931;52.098;21.006;2023-05-08T14:15:38;18.98;27.62
68128;SHT30;54931;52.098;21.006;2023-05-08T14:18:06;18.90;28.66
68128;SHT30;54931;52.098;21.006;2023-05-08T14:20:37;19.11;28.78
68128;SHT30;54931;52.098;21.006;2023-05-08T14:23:04;19.27;28.81
68128;SHT30;54931;52.098;21.006;2023-05-08T14:25:32;19.45;28.73
68128;SHT30;54931;52.098;21.006;2023-05-08T14:28:00;19.45;27.75
68128;SHT30;54931;52.098;21.006;2023-05-08T14:30:28;18.87;27.61
68128;SHT30;54931;52.098;21.006;2023-05-08T14:32:55;18.34;28.39
68128;SHT30;54931;52.098;21.006;2023-05-08T14:35:23;17.96;28.49
68128;SHT30;54931;52.098;21.006;2023-05-08T14:37:51;17.98;29.29
68128;SHT30;54931;52.098;21.006;2023-05-08T14:40:19;18.26;29.46
68128;SHT30;54931;52.098;21.006;2023-05-08T14:42:47;18.61;28.95
68128;SHT30;54931;52.098;21.006;2023-05-08T14:45:14;19.00;27.93
68128;SHT30;54931;52.098;21.006;2023-05-08T14:47:42;19.39;27.98
68128;SHT30;54931;52.098;21.006;2023-05-08T14:50:10;19.78;27.22
68128;SHT30;54931;52.098;21.006;2023-05-08T14:52:37;20.23;27.80
68128;SHT30;54931;52.098;21.006;2023-05-08T14:55:05;20.65;25.84
68128;SHT30;54931;52.098;21.006;2023-05-08T14:57:34;20.37;26.66
68128;SHT30;54931;52.098;21.006;2023-05-08T15:00:02;20.51;27.07
68128;SHT30;54931;52.098;21.006;2023-05-08T15:02:30;20.81;26.41
68128;SHT30;54931;52.098;21.006;2023-05-08T15:04:58;20.80;25.64
68128;SHT30;54931;52.098;21.006;2023-05-08T15:07:25;20.26;26.39
68128;SHT30;54931;52.098;21.006;2023-05-08T15:09:53;19.86;26.76
68128;SHT30;54931;52.098;21.006;2023-05-08T15:12:20;19.25;26.80
68128;SHT30;54931;52.098;21.006;2023-05-08T15:14:48;18.91;27.45
68128;SHT30;54931;52.098;21.006;2023-05-08T15:17:15;19.06;28.02
68128;SHT30;54931;52.098;21.006;2023-05-08T15:19:44;19.52;28.58
68128;SHT30;54931;52.098;21.006;2023-05-08T15:22:12;20.21;28.24
68128;SHT30;54931;52.098;21.006;2023-05-08T15:24:40;20.78;26.72
68128;SHT30;54931;52.098;21.006;2023-05-08T15:27:08;21.21;26.41
68128;SHT30;54931;52.098;21.006;2023-05-08T15:29:37;21.68;25.63
68128;SHT30;54931;52.098;21.006;2023-05-08T15:32:05;22.05;25.50
68128;SHT30;54931;52.098;21.006;2023-05-08T15:34:34;22.10;23.66
68128;SHT30;54931;52.098;21.006;2023-05-08T15:37:01;21.71;24.70
68128;SHT30;54931;52.098;21.006;2023-05-08T15:39:29;21.82;24.88
68128;SHT30;54931;52.098;21.006;2023-05-08T15:41:56;21.98;25.03
68128;SHT30;54931;52.098;21.006;2023-05-08T15:44:24;21.98;24.35
68128;SHT30;54931;52.098;21.006;2023-05-08T15:46:53;21.60;24.67
68128;SHT30;54931;52.098;21.006;2023-05-08T15:49:22;20.94;25.54
68128;SHT30;54931;52.098;21.006;2023-05-08T15:51:54;20.38;26.34
68128;SHT30;54931;52.098;21.006;2023-05-08T15:54:22;19.69;27.53
68128;SHT30;54931;52.098;21.006;2023-05-08T15:56:51;19.19;27.68
68128;SHT30;54931;52.098;21.006;2023-05-08T15:59:26;18.92;28.59
68128;SHT30;54931;52.098;21.006;2023-05-08T16:01:54;19.38;28.79
68128;SHT30;54931;52.098;21.006;2023-05-08T16:04:23;20.10;28.25
68128;SHT30;54931;52.098;21.006;2023-05-08T16:06:53;20.73;27.16
68128;SHT30;54931;52.098;21.006;2023-05-08T16:09:22;21.21;26.75
68128;SHT30;54931;52.098;21.006;2023-05-08T16:11:54;21.68;26.60
68128;SHT30;54931;52.098;21.006;2023-05-08T16:14:25;21.94;26.12
68128;SHT30;54931;52.098;21.006;2023-05-08T16:16:53;22.27;26.44
68128;SHT30;54931;52.098;21.006;2023-05-08T16:19:23;22.53;25.20
68128;SHT30;54931;52.098;21.006;2023-05-08T16:21:53;22.31;24.19
68128;SHT30;54931;52.098;21.006;2023-05-08T16:24:21;21.99;24.71
68128;SHT30;54931;52.098;21.006;2023-05-08T16:26:49;21.92;25.46
68128;SHT30;54931;52.098;21.006;2023-05-08T16:29:18;21.93;25.03
68128;SHT30;54931;52.098;21.006;2023-05-08T16:31:47;21.81;24.68